createdAt,value
2019-02-23T00:02:23.200Z,35.75
2019-02-23T00:04:52.182Z,37.73
2019-02-23T00:07:21.180Z,37.95
2019-02-23T00:09:50.156Z,39.23
2019-02-23T00:12:19.201Z,41.00
2019-02-23T00:14:48.182Z,38.20
2019-02-23T00:17:17.208Z,37.05
2019-02-23T00:19:46.182Z,38.00
2019-02-23T00:22:15.170Z,39.88
2019-02-23T00:24:44.147Z,38.05
2019-02-23T00:27:13.137Z,38.05
2019-02-23T00:29:42.118Z,37.55
2019-02-23T00:32:12.091Z,38.33
2019-02-23T00:34:41.074Z,39.18
2019-02-23T00:37:15.843Z,40.20
2019-02-23T00:39:44.845Z,39.42
2019-02-23T00:42:13.833Z,39.03
2019-02-23T00:44:42.819Z,40.15
2019-02-23T00:47:11.807Z,38.38
2019-02-23T00:49:40.787Z,39.38
2019-02-23T00:52:09.765Z,38.28
2019-02-23T00:54:38.786Z,39.20
2019-02-23T00:57:07.751Z,37.85
2019-02-23T00:59:36.749Z,37.75
2019-02-23T01:02:05.729Z,40.10
2019-02-23T01:04:34.705Z,38.98
2019-02-23T01:07:06.423Z,40.38
2019-02-23T01:09:35.439Z,40.00
2019-02-23T01:12:04.433Z,38.78
2019-02-23T01:14:33.422Z,40.52
2019-02-23T01:17:02.435Z,40.75
2019-02-23T01:19:31.423Z,40.85
2019-02-23T01:22:00.400Z,37.55
2019-02-23T01:24:29.377Z,38.50
2019-02-23T01:26:58.371Z,40.43
2019-02-23T01:29:27.357Z,39.50
2019-02-23T01:31:56.343Z,40.90
2019-02-23T01:34:25.351Z,39.98
2019-02-23T01:36:55.504Z,40.17
2019-02-23T01:41:54.237Z,37.28
2019-02-23T01:44:23.579Z,39.53
2019-02-23T01:46:52.573Z,40.17
2019-02-23T01:49:21.565Z,39.73
2019-02-23T01:51:50.563Z,41.60
2019-02-23T01:54:23.247Z,42.90
2019-02-23T01:56:52.230Z,43.08
2019-02-23T01:59:21.226Z,40.08
2019-02-23T02:01:51.194Z,44.27
2019-02-23T02:04:20.160Z,43.08
2019-02-23T02:06:49.212Z,43.10
2019-02-23T02:09:18.186Z,44.05
2019-02-23T02:11:48.790Z,44.63
2019-02-23T02:14:17.773Z,43.45
2019-02-23T02:16:46.770Z,43.20
2019-02-23T02:19:15.746Z,42.60
2019-02-23T02:21:44.910Z,41.50
2019-02-23T02:24:13.846Z,43.90
2019-02-23T02:26:42.838Z,45.17
2019-02-23T02:29:11.822Z,46.15
2019-02-23T02:31:40.875Z,45.30
2019-02-23T02:34:11.386Z,45.73
2019-02-23T02:36:40.378Z,46.65
2019-02-23T02:39:13.036Z,44.45
2019-02-23T02:41:42.033Z,46.28
2019-02-23T02:44:11.011Z,45.12
2019-02-23T02:46:39.986Z,44.77
2019-02-23T02:49:09.934Z,43.42
2019-02-23T02:51:38.915Z,44.63
2019-02-23T02:54:07.891Z,42.95
2019-02-23T02:56:36.886Z,44.53
2019-02-23T02:59:05.856Z,45.70
2019-02-23T03:01:34.868Z,43.98
2019-02-23T03:04:03.845Z,44.83
2019-02-23T03:06:32.835Z,44.10
2019-02-23T03:09:01.824Z,43.30
2019-02-23T03:11:32.437Z,42.27
2019-02-23T03:14:01.407Z,44.90
2019-02-23T03:16:30.406Z,45.17
2019-02-23T03:18:59.386Z,44.38
2019-02-23T03:21:28.463Z,45.75
2019-02-23T03:23:57.441Z,46.10
2019-02-23T03:26:26.460Z,47.80
2019-02-23T03:28:55.531Z,49.42
2019-02-23T03:31:24.546Z,47.50
2019-02-23T03:33:53.603Z,47.20
2019-02-23T03:36:22.670Z,45.35
2019-02-23T03:38:51.651Z,47.62
2019-02-23T03:41:20.637Z,50.28
2019-02-23T03:43:49.634Z,48.23
2019-02-23T03:46:18.603Z,49.18
2019-02-23T03:48:47.619Z,45.85
2019-02-23T03:51:16.602Z,46.18
2019-02-23T03:53:46.705Z,46.28
2019-02-23T03:58:43.841Z,45.78
2019-02-23T04:01:12.911Z,47.00
2019-02-23T04:03:41.901Z,50.50
2019-02-23T04:06:10.908Z,46.25
2019-02-23T04:08:39.951Z,47.73
2019-02-23T04:11:08.989Z,46.65
2019-02-23T04:13:38.015Z,46.95
2019-02-23T04:16:07.054Z,45.80
2019-02-23T04:18:36.049Z,47.17
2019-02-23T04:21:05.046Z,45.40
2019-02-23T04:23:34.014Z,46.90
2019-02-23T04:26:03.082Z,45.75
2019-02-23T04:31:01.263Z,42.88
2019-02-23T04:33:30.334Z,44.63
2019-02-23T04:35:59.403Z,47.00
2019-02-23T04:38:28.410Z,46.95
2019-02-23T04:40:57.385Z,44.25
2019-02-23T04:43:26.387Z,47.25
2019-02-23T04:45:55.373Z,44.88
2019-02-23T04:48:24.362Z,45.48
2019-02-23T04:50:53.337Z,46.75
2019-02-23T04:53:41.479Z,46.88
2019-02-23T04:56:10.456Z,44.40
2019-02-23T04:58:39.502Z,44.20
2019-02-23T05:01:08.505Z,43.73
2019-02-23T05:03:37.494Z,45.03
2019-02-23T05:06:06.487Z,41.37
2019-02-23T05:08:35.490Z,44.15
2019-02-23T05:11:04.491Z,41.90
2019-02-23T05:13:34.519Z,40.85
2019-02-23T05:16:03.540Z,41.95
2019-02-23T05:18:32.516Z,41.83
2019-02-23T05:21:01.505Z,44.83
2019-02-23T05:23:36.243Z,45.12
2019-02-23T05:26:05.238Z,43.02
2019-02-23T05:28:34.206Z,42.00
2019-02-23T05:31:03.191Z,43.98
2019-02-23T05:33:32.180Z,43.48
2019-02-23T05:36:01.170Z,46.05
2019-02-23T05:38:30.143Z,44.80
2019-02-23T05:40:59.122Z,40.65
2019-02-23T05:43:28.090Z,43.13
2019-02-23T05:45:57.086Z,45.10
2019-02-23T05:48:26.078Z,45.50
2019-02-23T05:50:55.084Z,45.28
2019-02-23T05:53:24.077Z,43.98
2019-02-23T05:55:53.050Z,44.25
2019-02-23T05:58:22.052Z,43.50
2019-02-23T06:00:51.045Z,43.58
2019-02-23T06:03:20.049Z,43.23
2019-02-23T06:05:49.086Z,47.38
2019-02-23T06:08:18.087Z,45.30
2019-02-23T06:10:47.435Z,44.25
2019-02-23T06:13:16.438Z,46.23
2019-02-23T06:15:45.431Z,44.38
2019-02-23T06:18:14.563Z,45.63
2019-02-23T06:20:43.545Z,43.78
2019-02-23T06:23:12.531Z,42.55
2019-02-23T06:25:41.515Z,43.95
2019-02-23T06:28:10.509Z,42.48
2019-02-23T06:30:42.699Z,43.68
2019-02-23T06:33:11.662Z,41.77
2019-02-23T06:35:40.655Z,43.38
2019-02-23T06:38:09.639Z,45.40
2019-02-23T06:40:38.628Z,43.00
2019-02-23T06:43:07.605Z,43.63
2019-02-23T06:45:36.602Z,42.55
2019-02-23T06:50:40.409Z,44.55
2019-02-23T06:53:09.423Z,45.03
2019-02-23T06:55:38.555Z,44.42
2019-02-23T06:58:07.520Z,45.75
2019-02-23T07:00:36.511Z,43.30
2019-02-23T07:03:08.601Z,46.37
2019-02-23T07:05:37.583Z,46.20
2019-02-23T07:08:07.885Z,46.23
2019-02-23T07:10:38.942Z,46.05
2019-02-23T07:13:09.559Z,44.65
2019-02-23T07:15:39.174Z,44.25
2019-02-23T07:18:08.395Z,42.67
2019-02-23T07:29:29.017Z,41.58
2019-02-23T07:31:57.991Z,42.17
2019-02-23T07:34:26.975Z,41.15
2019-02-23T07:36:56.167Z,40.78
2019-02-23T07:39:27.328Z,41.97
2019-02-23T07:41:59.488Z,40.70
2019-02-23T07:44:28.470Z,40.98
2019-02-23T07:47:00.641Z,41.63
2019-02-23T07:49:29.695Z,40.38
2019-02-23T07:51:59.842Z,40.75
2019-02-23T07:54:33.390Z,39.75
2019-02-23T07:57:02.401Z,39.25
2019-02-23T07:59:31.498Z,38.45
2019-02-23T08:02:00.494Z,39.63
2019-02-23T08:04:29.562Z,40.48
2019-02-23T08:07:00.326Z,38.95
2019-02-23T08:09:29.298Z,40.50
2019-02-23T08:11:58.386Z,38.50
2019-02-23T08:14:27.363Z,38.38
2019-02-23T08:16:56.418Z,36.60
2019-02-23T08:19:29.592Z,36.05
2019-02-23T08:21:58.652Z,36.25
2019-02-23T08:24:29.498Z,35.73
2019-02-23T08:27:02.340Z,35.52
2019-02-23T08:29:31.342Z,35.13
2019-02-23T08:32:01.445Z,34.50
2019-02-23T08:37:05.898Z,32.48
2019-02-23T08:39:38.663Z,33.90
2019-02-23T08:42:10.689Z,34.25
2019-02-23T08:44:42.769Z,33.25
2019-02-23T08:47:11.803Z,33.70
2019-02-23T08:49:41.185Z,34.78
2019-02-23T08:52:10.722Z,33.33
2019-02-23T08:54:39.697Z,33.53
2019-02-23T08:57:08.775Z,34.38
2019-02-23T08:59:37.798Z,33.73
2019-02-23T09:02:06.775Z,32.00
2019-02-23T09:04:36.194Z,31.42
2019-02-23T09:07:05.160Z,32.28
2019-02-23T09:09:34.611Z,32.38
2019-02-23T09:12:03.645Z,32.80
2019-02-23T09:14:32.619Z,33.18
2019-02-23T09:17:01.585Z,31.87
2019-02-23T09:19:30.555Z,32.33
2019-02-23T09:21:59.666Z,32.42
2019-02-23T09:24:30.171Z,33.15
2019-02-23T09:26:59.167Z,32.00
2019-02-23T09:29:31.285Z,31.55
2019-02-23T09:32:00.511Z,34.00
2019-02-23T09:34:29.450Z,34.00
2019-02-23T09:36:58.795Z,31.90
2019-02-23T09:39:27.817Z,32.13
2019-02-23T09:42:07.011Z,31.85
2019-02-23T09:44:27.501Z,31.73
2019-02-23T09:46:59.326Z,31.55
2019-02-23T09:49:28.342Z,30.90
2019-02-23T09:51:57.359Z,31.15
2019-02-23T09:54:26.363Z,32.05
2019-02-23T09:56:55.505Z,31.93
2019-02-23T09:59:24.522Z,31.33
2019-02-23T10:01:54.653Z,29.95
2019-02-23T10:06:53.430Z,28.47
2019-02-23T10:09:22.395Z,29.60
2019-02-23T10:11:51.358Z,29.87
2019-02-23T10:14:20.650Z,29.45
2019-02-23T10:16:51.258Z,28.98
2019-02-23T10:19:29.420Z,28.95
2019-02-23T10:21:58.471Z,27.32
2019-02-23T10:24:27.485Z,29.32
2019-02-23T10:26:56.468Z,27.55
2019-02-23T10:29:25.519Z,27.70
2019-02-23T10:31:57.692Z,26.73
2019-02-23T10:34:26.856Z,27.15
2019-02-23T10:36:59.573Z,27.37
2019-02-23T10:39:31.666Z,27.48
2019-02-23T10:42:02.248Z,26.70
2019-02-23T10:44:31.219Z,25.35
2019-02-23T10:47:02.040Z,25.60
2019-02-23T10:49:34.918Z,24.90
2019-02-23T10:52:03.880Z,25.48
2019-02-23T10:54:35.710Z,24.05
2019-02-23T10:57:05.006Z,25.50
2019-02-23T10:59:35.578Z,25.30
2019-02-23T11:02:05.981Z,24.30
2019-02-23T11:04:44.348Z,22.67
2019-02-23T11:07:13.336Z,23.10
2019-02-23T11:09:42.369Z,23.22
2019-02-23T11:12:11.397Z,23.00
2019-02-23T11:14:40.414Z,22.48
2019-02-23T11:17:09.536Z,23.80
2019-02-23T11:19:40.070Z,23.63
2019-02-23T11:22:09.091Z,22.02
2019-02-23T11:24:38.054Z,22.05
2019-02-23T11:27:08.650Z,22.73
2019-02-23T11:29:37.598Z,22.20
2019-02-23T11:32:06.653Z,21.20
2019-02-23T11:34:38.046Z,22.07
2019-02-23T11:37:08.638Z,20.32
2019-02-23T11:39:37.635Z,21.55
2019-02-23T11:42:06.607Z,21.52
2019-02-23T11:44:35.569Z,22.17
2019-02-23T11:47:04.550Z,21.68
2019-02-23T11:49:33.525Z,22.20
2019-02-23T11:52:02.496Z,21.60
2019-02-23T11:54:31.511Z,21.40
2019-02-23T11:57:00.481Z,21.07
2019-02-23T11:59:29.471Z,21.15
2019-02-23T12:01:58.505Z,21.48
2019-02-23T12:04:33.907Z,20.85
2019-02-23T12:06:58.122Z,19.48
2019-02-23T12:09:27.130Z,19.98
2019-02-23T12:11:56.080Z,19.10
2019-02-23T12:14:25.966Z,19.95
2019-02-23T12:16:55.041Z,20.65
2019-02-23T12:19:23.991Z,20.62
2019-02-23T12:21:54.576Z,19.02
2019-02-23T12:24:23.529Z,19.45
2019-02-23T12:26:52.521Z,19.07
2019-02-23T12:29:21.483Z,19.85
2019-02-23T12:31:50.699Z,19.30
2019-02-23T12:34:19.661Z,20.37
2019-02-23T12:36:48.634Z,18.48
2019-02-23T12:39:22.005Z,18.82
2019-02-23T12:41:51.489Z,18.87
2019-02-23T12:44:22.839Z,18.73
2019-02-23T12:46:51.809Z,17.37
2019-02-23T12:49:21.019Z,17.92
2019-02-23T12:51:51.609Z,18.32
2019-02-23T12:56:49.981Z,18.50
2019-02-23T12:59:19.003Z,19.73
2019-02-23T13:01:48.148Z,19.67
2019-02-23T13:04:17.089Z,19.80
2019-02-23T13:06:46.457Z,19.32
2019-02-23T13:09:22.515Z,19.27
2019-02-23T13:11:55.777Z,19.95
2019-02-23T13:14:29.341Z,18.37
2019-02-23T13:16:59.845Z,19.60
2019-02-23T13:19:37.562Z,18.62
2019-02-23T13:22:10.488Z,19.85
2019-02-23T13:24:43.698Z,19.60
2019-02-23T13:27:20.092Z,18.50
2019-02-23T13:29:59.553Z,18.85
2019-02-23T13:32:49.266Z,18.07
2019-02-23T13:35:31.822Z,17.80
2019-02-23T13:38:10.818Z,18.92
2019-02-23T13:40:57.751Z,19.02
2019-02-23T13:43:33.832Z,17.48
2019-02-23T13:46:22.737Z,17.98
2019-02-23T13:48:58.818Z,17.40
2019-02-23T13:51:35.100Z,16.52
2019-02-23T13:54:19.358Z,19.10
2019-02-23T13:57:00.212Z,17.02
2019-02-23T13:59:36.589Z,16.05
2019-02-23T14:02:13.282Z,16.65
2019-02-23T14:04:51.530Z,16.35
2019-02-23T14:07:33.922Z,16.27
2019-02-23T14:12:55.110Z,15.90
2019-02-23T14:15:25.722Z,16.05
2019-02-23T14:18:12.874Z,17.10
2019-02-23T14:20:46.256Z,15.88
2019-02-23T14:23:29.256Z,16.85
2019-02-23T14:26:16.968Z,15.88
2019-02-23T14:28:58.508Z,16.80
2019-02-23T14:31:31.813Z,16.10
2019-02-23T14:34:02.423Z,16.32
2019-02-23T14:36:32.932Z,16.15
2019-02-23T14:39:20.949Z,15.65
2019-02-23T14:41:51.460Z,16.82
2019-02-23T14:44:29.070Z,16.67
2019-02-23T14:47:02.226Z,16.15
2019-02-23T14:49:50.059Z,16.93
2019-02-23T14:52:23.520Z,17.32
2019-02-23T14:55:00.889Z,15.78
2019-02-23T14:57:27.917Z,17.62
2019-02-23T15:00:02.655Z,16.77
2019-02-23T15:02:50.241Z,17.95
2019-02-23T15:05:23.718Z,18.05
2019-02-23T15:07:57.046Z,17.73
2019-02-23T15:10:29.241Z,17.80
2019-02-23T15:13:18.517Z,18.10
2019-02-23T15:15:54.483Z,16.85
2019-02-23T15:21:37.735Z,17.90
2019-02-23T15:24:26.310Z,18.73
2019-02-23T15:26:56.837Z,18.77
2019-02-23T15:29:39.424Z,18.73
2019-02-23T15:32:45.691Z,18.15
2019-02-23T15:35:21.936Z,19.07
2019-02-23T15:38:09.027Z,18.65
2019-02-23T15:40:45.410Z,19.15
2019-02-23T15:43:21.793Z,19.35
2019-02-23T15:45:58.894Z,20.08
2019-02-23T15:48:38.414Z,19.23
2019-02-23T15:51:10.585Z,19.80
2019-02-23T15:53:39.704Z,18.90
2019-02-23T15:56:08.866Z,21.00
2019-02-23T15:58:37.921Z,21.00
2019-02-23T16:01:06.892Z,20.73
2019-02-23T16:03:38.200Z,20.85
2019-02-23T16:06:07.467Z,20.20
2019-02-23T16:08:36.450Z,21.70
2019-02-23T16:11:05.417Z,20.70
2019-02-23T16:13:34.536Z,19.37
2019-02-23T16:16:03.867Z,19.85
2019-02-23T16:18:34.467Z,19.90
2019-02-23T16:21:05.501Z,18.75
2019-02-23T16:23:37.921Z,19.30
2019-02-23T16:26:06.902Z,18.30
2019-02-23T16:28:37.594Z,18.32
2019-02-23T16:31:06.569Z,17.85
2019-02-23T16:33:35.744Z,19.12
2019-02-23T16:36:04.766Z,18.50
2019-02-23T16:38:33.802Z,19.37
2019-02-23T16:43:31.970Z,17.70
2019-02-23T16:46:00.946Z,18.20
2019-02-23T16:48:29.992Z,17.50
2019-02-23T16:50:59.011Z,19.12
2019-02-23T16:53:28.230Z,17.27
2019-02-23T16:55:57.192Z,17.70
2019-02-23T16:58:28.994Z,16.37
2019-02-23T17:00:57.952Z,16.95
2019-02-23T17:03:26.926Z,17.57
2019-02-23T17:05:57.532Z,17.20
2019-02-23T17:08:26.574Z,16.25
2019-02-23T17:10:57.240Z,17.07
2019-02-23T17:13:26.397Z,16.93
2019-02-23T17:15:58.370Z,18.63
2019-02-23T17:18:30.090Z,17.32
2019-02-23T17:21:00.011Z,17.25
2019-02-23T17:23:29.791Z,18.05
2019-02-23T17:26:04.541Z,17.92
2019-02-23T17:28:31.608Z,16.85
2019-02-23T17:31:00.674Z,17.70
2019-02-23T17:33:32.546Z,17.73
2019-02-23T17:36:01.559Z,18.67
2019-02-23T17:38:31.576Z,18.80
2019-02-23T17:43:30.263Z,18.00
2019-02-23T17:45:59.842Z,17.12
2019-02-23T17:51:02.419Z,17.35
2019-02-23T17:53:33.262Z,18.07
2019-02-23T17:56:12.127Z,18.20
2019-02-23T17:58:39.888Z,18.35
2019-02-23T18:01:08.861Z,18.17
2019-02-23T18:03:37.829Z,18.95
2019-02-23T18:06:06.802Z,18.23
2019-02-23T18:08:35.772Z,18.15
2019-02-23T18:13:34.353Z,17.82
2019-02-23T18:16:04.039Z,17.70
2019-02-23T18:18:33.019Z,17.57
2019-02-23T18:21:02.012Z,18.02
2019-02-23T18:23:33.434Z,18.53
2019-02-23T18:26:02.450Z,17.73
2019-02-23T18:28:34.299Z,17.73
2019-02-23T18:31:04.869Z,17.57
2019-02-23T18:33:33.849Z,18.57
2019-02-23T18:36:03.031Z,18.40
2019-02-23T18:38:31.963Z,18.93
2019-02-23T18:41:00.917Z,18.82
2019-02-23T18:43:29.899Z,18.32
2019-02-23T18:45:58.946Z,17.95
2019-02-23T18:48:27.927Z,19.90
2019-02-23T18:50:56.976Z,18.45
2019-02-23T18:53:28.445Z,19.37
2019-02-23T18:56:00.151Z,18.90
2019-02-23T18:58:29.251Z,19.55
2019-02-23T19:00:58.348Z,19.52
2019-02-23T19:03:27.265Z,19.30
2019-02-23T19:05:56.243Z,18.90
2019-02-23T19:08:25.207Z,18.95
2019-02-23T19:13:26.778Z,19.27
2019-02-23T19:15:58.742Z,18.20
2019-02-23T19:18:31.009Z,19.05
2019-02-23T19:21:01.045Z,17.82
2019-02-23T19:23:31.741Z,18.12
2019-02-23T19:26:00.770Z,18.17
2019-02-23T19:28:29.811Z,18.87
2019-02-23T19:31:00.626Z,17.77
2019-02-23T19:33:29.694Z,18.40
2019-02-23T19:35:58.758Z,18.00
2019-02-23T19:38:27.746Z,18.57
2019-02-23T19:40:56.742Z,17.48
2019-02-23T19:43:28.778Z,17.42
2019-02-23T19:46:00.566Z,17.00
2019-02-23T19:48:29.696Z,17.77
2019-02-23T19:51:05.814Z,17.95
2019-02-23T19:53:34.846Z,18.60
2019-02-23T19:56:03.900Z,18.30
2019-02-23T19:58:37.765Z,18.20
2019-02-23T20:01:11.856Z,17.57
2019-02-23T20:03:41.290Z,17.70
2019-02-23T20:06:10.452Z,18.25
2019-02-23T20:08:40.839Z,18.10
2019-02-23T20:11:12.765Z,18.20
2019-02-23T20:13:41.723Z,17.77
2019-02-23T20:16:11.247Z,17.62
2019-02-23T20:18:40.264Z,17.77
2019-02-23T20:21:09.834Z,19.07
2019-02-23T20:23:38.801Z,17.82
2019-02-23T20:26:07.920Z,18.85
2019-02-23T20:28:45.797Z,18.40
2019-02-23T20:31:19.476Z,17.55
2019-02-23T20:33:45.504Z,18.67
2019-02-23T20:36:14.637Z,19.02
2019-02-23T20:38:43.565Z,18.13
2019-02-23T20:41:12.652Z,18.15
2019-02-23T20:43:41.666Z,19.43
2019-02-23T20:46:10.787Z,18.17
2019-02-23T20:48:39.904Z,18.73
2019-02-23T20:51:11.007Z,19.02
2019-02-23T20:53:39.979Z,18.48
2019-02-23T20:56:10.875Z,18.73
2019-02-23T20:58:39.865Z,18.33
2019-02-23T21:01:11.820Z,18.80
2019-02-23T21:03:40.897Z,17.90
2019-02-23T21:06:09.901Z,18.62
2019-02-23T21:08:40.805Z,17.90
2019-02-23T21:11:10.064Z,18.95
2019-02-23T21:13:39.127Z,18.53
2019-02-23T21:16:08.155Z,18.30
2019-02-23T21:18:38.098Z,18.98
2019-02-23T21:21:07.060Z,17.55
2019-02-23T21:23:36.023Z,17.62
2019-02-23T21:26:07.795Z,18.17
2019-02-23T21:28:38.135Z,18.10
2019-02-23T21:31:07.191Z,17.65
2019-02-23T21:33:36.149Z,18.00
2019-02-23T21:36:05.119Z,17.52
2019-02-23T21:38:34.094Z,17.87
2019-02-23T21:41:03.060Z,17.75
2019-02-23T21:43:32.023Z,16.57
2019-02-23T21:46:01.004Z,16.57
2019-02-23T21:51:20.539Z,16.85
2019-02-23T21:53:49.656Z,17.80
2019-02-23T21:56:18.632Z,17.30
2019-02-23T21:58:47.586Z,17.15
2019-02-23T22:01:19.752Z,17.15
2019-02-23T22:03:48.945Z,17.95
2019-02-23T22:06:21.752Z,17.07
2019-02-23T22:08:50.823Z,17.67
2019-02-23T22:11:21.917Z,17.30
2019-02-23T22:13:51.916Z,17.90
2019-02-23T22:16:23.118Z,18.32
2019-02-23T22:18:52.220Z,17.60
2019-02-23T22:21:21.193Z,18.55
2019-02-23T22:23:50.266Z,17.90
2019-02-23T22:26:19.486Z,17.12
2019-02-23T22:28:48.517Z,17.57
2019-02-23T22:31:20.985Z,17.42
2019-02-23T22:33:50.608Z,16.95
2019-02-23T22:36:19.588Z,16.17
2019-02-23T22:38:50.236Z,15.70
2019-02-23T22:41:19.207Z,16.00
2019-02-23T22:43:48.163Z,16.57
2019-02-23T22:46:17.342Z,17.27
2019-02-23T22:48:46.284Z,17.30
2019-02-23T22:51:16.864Z,16.90
2019-02-23T22:53:45.842Z,16.10
2019-02-23T22:56:14.906Z,16.42
2019-02-23T22:58:43.868Z,16.32
2019-02-23T23:01:13.106Z,17.10
2019-02-23T23:03:43.883Z,16.70
2019-02-23T23:06:12.842Z,16.13
2019-02-23T23:11:15.153Z,15.32
2019-02-23T23:13:44.112Z,16.05
2019-02-23T23:16:13.175Z,16.12
2019-02-23T23:18:42.137Z,16.97
2019-02-23T23:21:11.171Z,16.25
2019-02-23T23:23:40.693Z,16.42
2019-02-23T23:26:11.510Z,16.27
2019-02-23T23:28:40.398Z,16.57
2019-02-23T23:31:09.356Z,17.42
2019-02-23T23:33:38.330Z,15.80
2019-02-23T23:36:07.372Z,16.07
2019-02-23T23:38:40.038Z,16.75
2019-02-23T23:41:09.003Z,15.90
2019-02-23T23:43:37.981Z,16.73
2019-02-23T23:46:06.942Z,16.35
2019-02-23T23:48:37.417Z,15.83
2019-02-23T23:51:07.362Z,16.30
2019-02-23T23:53:36.330Z,16.77
2019-02-23T23:56:07.022Z,15.90
2019-02-23T23:58:43.288Z,16.42
